sensor_id;sensor_type;location;lat;lon;timestamp;pressure;altitude;pressure_sealevel;temperature;humidity
63339;BME280;47485;51.378;-1.342;2023-05-03T00:00:54;101352.39;;;9.60;23.50
63339;BME280;47485;51.378;-1.342;2023-05-03T00:03:21;101348.92;;;9.63;23.52
63339;BME280;47485;51.378;-1.342;2023-05-03T00:05:48;101346.16;;;10.17;23.23
63339;BME280;47485;51.378;-1.342;2023-05-03T00:08:16;101345.64;;;9.55;23.43
63339;BME280;47485;51.378;-1.342;2023-05-03T00:10:42;101348.43;;;9.45;23.96
63339;BME280;47485;51.378;-1.342;2023-05-03T00:13:10;101350.47;;;10.48;23.45
63339;BME280;47485;51.378;-1.342;2023-05-03T00:15:37;101351.06;;;10.48;23.11
63339;BME280;47485;51.378;-1.342;2023-05-03T00:18:04;101349.61;;;10.35;23.41
63339;BME280;47485;51.378;-1.342;2023-05-03T00:20:30;101344.79;;;9.45;23.90
63339;BME280;47485;51.378;-1.342;2023-05-03T00:22:57;101343.79;;;10.28;23.57
63339;BME280;47485;51.378;-1.342;2023-05-03T00:25:24;101346.92;;;8.99;23.91
63339;BME280;47485;51.378;-1.342;2023-05-03T00:27:50;101349.00;;;10.02;23.36
63339;BME280;47485;51.378;-1.342;2023-05-03T00:30:17;101345.57;;;9.74;23.52
63339;BME280;47485;51.378;-1.342;2023-05-03T00:32:44;101344.93;;;10.24;23.57
63339;BME280;47485;51.378;-1.342;2023-05-03T00:35:11;101343.35;;;9.79;23.29
63339;BME280;47485;51.378;-1.342;2023-05-03T00:37:38;101341.89;;;10.34;23.19
63339;BME280;47485;51.378;-1.342;2023-05-03T00:40:06;101340.83;;;9.99;23.52
63339;BME280;47485;51.378;-1.342;2023-05-03T00:42:34;101340.73;;;8.72;24.04
63339;BME280;47485;51.378;-1.342;2023-05-03T00:45:00;101336.21;;;10.25;23.53
63339;BME280;47485;51.378;-1.342;2023-05-03T00:47:28;101337.24;;;9.12;23.86
63339;BME280;47485;51.378;-1.342;2023-05-03T00:49:55;101332.92;;;9.54;22.81
63339;BME280;47485;51.378;-1.342;2023-05-03T00:52:22;101331.25;;;10.87;22.97
63339;BME280;47485;51.378;-1.342;2023-05-03T00:54:49;101330.77;;;10.21;23.36
63339;BME280;47485;51.378;-1.342;2023-05-03T00:57:15;101331.99;;;9.06;23.64
63339;BME280;47485;51.378;-1.342;2023-05-03T00:59:42;101325.80;;;10.65;23.32
63339;BME280;47485;51.378;-1.342;2023-05-03T01:02:10;101327.41;;;10.49;23.65
63339;BME280;47485;51.378;-1.342;2023-05-03T01:04:37;101328.57;;;9.74;23.77
63339;BME280;47485;51.378;-1.342;2023-05-03T01:07:10;101329.52;;;10.19;23.51
63339;BME280;47485;51.378;-1.342;2023-05-03T01:09:46;101325.70;;;9.70;23.84
63339;BME280;47485;51.378;-1.342;2023-05-03T01:12:22;101321.24;;;10.27;23.40
63339;BME280;47485;51.378;-1.342;2023-05-03T01:14:57;101319.94;;;9.80;23.41
63339;BME280;47485;51.378;-1.342;2023-05-03T01:17:28;101319.05;;;9.55;23.83
63339;BME280;47485;51.378;-1.342;2023-05-03T01:20:04;101318.77;;;10.45;23.34
63339;BME280;47485;51.378;-1.342;2023-05-03T01:22:37;101320.49;;;9.16;23.88
63339;BME280;47485;51.378;-1.342;2023-05-03T01:25:09;101320.45;;;8.55;24.13
63339;BME280;47485;51.378;-1.342;2023-05-03T01:27:37;101319.56;;;8.45;24.26
63339;BME280;47485;51.378;-1.342;2023-05-03T01:30:05;101319.78;;;10.08;24.12
63339;BME280;47485;51.378;-1.342;2023-05-03T01:32:44;101317.81;;;8.91;24.22
63339;BME280;47485;51.378;-1.342;2023-05-03T01:35:19;101315.06;;;10.54;23.53
63339;BME280;47485;51.378;-1.342;2023-05-03T01:37:50;101314.46;;;9.24;23.62
63339;BME280;47485;51.378;-1.342;2023-05-03T01:40:18;101318.32;;;9.50;24.11
63339;BME280;47485;51.378;-1.342;2023-05-03T01:42:47;101314.06;;;8.91;23.85
63339;BME280;47485;51.378;-1.342;2023-05-03T01:45:16;101312.28;;;9.02;24.02
63339;BME280;47485;51.378;-1.342;2023-05-03T01:47:43;101312.89;;;8.80;24.03
63339;BME280;47485;51.378;-1.342;2023-05-03T01:50:11;101311.45;;;9.98;24.06
63339;BME280;47485;51.378;-1.342;2023-05-03T01:52:39;101313.61;;;8.21;24.88
63339;BME280;47485;51.378;-1.342;2023-05-03T01:55:06;101306.97;;;10.00;23.61
63339;BME280;47485;51.378;-1.342;2023-05-03T01:57:33;101304.38;;;10.96;23.71
63339;BME280;47485;51.378;-1.342;2023-05-03T02:00:00;101306.21;;;9.58;24.29
63339;BME280;47485;51.378;-1.342;2023-05-03T02:02:26;101310.29;;;7.73;25.52
63339;BME280;47485;51.378;-1.342;2023-05-03T02:04:53;101310.28;;;7.39;25.02
63339;BME280;47485;51.378;-1.342;2023-05-03T02:07:20;101307.67;;;7.77;25.12
63339;BME280;47485;51.378;-1.342;2023-05-03T02:09:47;101304.51;;;8.16;25.50
63339;BME280;47485;51.378;-1.342;2023-05-03T02:12:13;101300.40;;;8.70;24.60
63339;BME280;47485;51.378;-1.342;2023-05-03T02:14:40;101298.83;;;9.53;24.23
63339;BME280;47485;51.378;-1.342;2023-05-03T02:17:07;101295.13;;;9.75;24.48
63339;BME280;47485;51.378;-1.342;2023-05-03T02:19:34;101295.15;;;8.25;24.77
63339;BME280;47485;51.378;-1.342;2023-05-03T02:22:02;101296.15;;;6.56;25.25
63339;BME280;47485;51.378;-1.342;2023-05-03T02:24:28;101297.49;;;8.31;24.96
63339;BME280;47485;51.378;-1.342;2023-05-03T02:26:55;101296.02;;;7.95;24.86
63339;BME280;47485;51.378;-1.342;2023-05-03T02:29:22;101298.76;;;7.37;25.67
63339;BME280;47485;51.378;-1.342;2023-05-03T02:31:49;101301.01;;;8.55;24.82
63339;BME280;47485;51.378;-1.342;2023-05-03T02:34:16;101293.98;;;9.60;23.98
63339;BME280;47485;51.378;-1.342;2023-05-03T02:36:43;101298.38;;;7.16;25.18
63339;BME280;47485;51.378;-1.342;2023-05-03T02:39:11;101296.98;;;8.44;25.13
63339;BME280;47485;51.378;-1.342;2023-05-03T02:41:37;101296.20;;;8.65;24.97
63339;BME280;47485;51.378;-1.342;2023-05-03T02:44:04;101295.30;;;7.70;24.95
63339;BME280;47485;51.378;-1.342;2023-05-03T02:46:31;101297.75;;;7.12;25.58
63339;BME280;47485;51.378;-1.342;2023-05-03T02:48:58;101294.55;;;8.82;24.69
63339;BME280;47485;51.378;-1.342;2023-05-03T02:51:25;101290.59;;;8.57;24.81
63339;BME280;47485;51.378;-1.342;2023-05-03T02:53:52;101287.85;;;7.28;25.67
63339;BME280;47485;51.378;-1.342;2023-05-03T02:56:19;101283.38;;;7.52;25.24
63339;BME280;47485;51.378;-1.342;2023-05-03T02:58:45;101281.06;;;8.96;24.61
63339;BME280;47485;51.378;-1.342;2023-05-03T03:01:12;101282.50;;;7.72;25.42
63339;BME280;47485;51.378;-1.342;2023-05-03T03:03:39;101282.42;;;7.47;25.23
63339;BME280;47485;51.378;-1.342;2023-05-03T03:06:06;101277.58;;;9.78;24.39
63339;BME280;47485;51.378;-1.342;2023-05-03T03:08:32;101277.42;;;7.88;25.27
63339;BME280;47485;51.378;-1.342;2023-05-03T03:10:59;101278.49;;;8.46;25.25
63339;BME280;47485;51.378;-1.342;2023-05-03T03:13:26;101277.19;;;7.65;24.72
63339;BME280;47485;51.378;-1.342;2023-05-03T03:15:53;101278.30;;;7.56;25.47
63339;BME280;47485;51.378;-1.342;2023-05-03T03:18:20;101280.38;;;6.23;25.56
63339;BME280;47485;51.378;-1.342;2023-05-03T03:20:46;101276.57;;;7.05;25.27
63339;BME280;47485;51.378;-1.342;2023-05-03T03:23:13;101273.27;;;7.14;25.19
63339;BME280;47485;51.378;-1.342;2023-05-03T03:25:40;101274.82;;;8.15;24.54
63339;BME280;47485;51.378;-1.342;2023-05-03T03:28:07;101271.31;;;5.96;25.09
63339;BME280;47485;51.378;-1.342;2023-05-03T03:30:34;101268.71;;;5.97;25.38
63339;BME280;47485;51.378;-1.342;2023-05-03T03:33:00;101265.30;;;7.05;25.42
63339;BME280;47485;51.378;-1.342;2023-05-03T03:35:27;101263.86;;;7.74;24.79
63339;BME280;47485;51.378;-1.342;2023-05-03T03:37:54;101263.17;;;7.46;25.39
63339;BME280;47485;51.378;-1.342;2023-05-03T03:40:22;101262.65;;;8.28;24.86
63339;BME280;47485;51.378;-1.342;2023-05-03T03:42:49;101259.35;;;7.53;24.93
63339;BME280;47485;51.378;-1.342;2023-05-03T03:45:16;101260.23;;;9.23;24.40
63339;BME280;47485;51.378;-1.342;2023-05-03T03:47:43;101262.24;;;7.27;25.76
63339;BME280;47485;51.378;-1.342;2023-05-03T03:50:11;101264.02;;;7.51;24.97
63339;BME280;47485;51.378;-1.342;2023-05-03T03:52:38;101263.39;;;8.69;25.57
63339;BME280;47485;51.378;-1.342;2023-05-03T03:55:05;101259.80;;;8.33;24.97
63339;BME280;47485;51.378;-1.342;2023-05-03T03:57:32;101260.97;;;7.56;25.23
63339;BME280;47485;51.378;-1.342;2023-05-03T03:59:59;101257.13;;;7.06;25.44
63339;BME280;47485;51.378;-1.342;2023-05-03T04:02:27;101256.04;;;7.20;25.59
63339;BME280;47485;51.378;-1.342;2023-05-03T04:04:54;101252.75;;;7.72;24.95
63339;BME280;47485;51.378;-1.342;2023-05-03T04:07:21;101249.70;;;6.50;25.50
63339;BME280;47485;51.378;-1.342;2023-05-03T04:09:47;101245.58;;;8.33;25.28
63339;BME280;47485;51.378;-1.342;2023-05-03T04:12:14;101243.37;;;8.42;25.25
63339;BME280;47485;51.378;-1.342;2023-05-03T04:14:41;101241.52;;;7.89;25.22
63339;BME280;47485;51.378;-1.342;2023-05-03T04:17:08;101236.57;;;5.95;25.95
63339;BME280;47485;51.378;-1.342;2023-05-03T04:19:35;101232.37;;;7.77;25.22
63339;BME280;47485;51.378;-1.342;2023-05-03T04:22:01;101235.57;;;8.56;25.25
63339;BME280;47485;51.378;-1.342;2023-05-03T04:24:28;101238.32;;;7.54;25.54
63339;BME280;47485;51.378;-1.342;2023-05-03T04:26:55;101237.57;;;7.01;25.73
63339;BME280;47485;51.378;-1.342;2023-05-03T04:29:21;101237.41;;;7.53;25.00
63339;BME280;47485;51.378;-1.342;2023-05-03T04:31:48;101234.10;;;6.28;25.76
63339;BME280;47485;51.378;-1.342;2023-05-03T04:34:15;101231.83;;;7.22;25.62
63339;BME280;47485;51.378;-1.342;2023-05-03T04:36:42;101231.26;;;7.24;25.48
63339;BME280;47485;51.378;-1.342;2023-05-03T04:39:10;101228.48;;;7.72;25.17
63339;BME280;47485;51.378;-1.342;2023-05-03T04:41:36;101225.55;;;7.36;25.14
63339;BME280;47485;51.378;-1.342;2023-05-03T04:44:04;101222.95;;;7.21;24.94
63339;BME280;47485;51.378;-1.342;2023-05-03T04:46:31;101221.43;;;7.49;25.19
63339;BME280;47485;51.378;-1.342;2023-05-03T04:48:58;101226.69;;;6.65;25.47
63339;BME280;47485;51.378;-1.342;2023-05-03T04:51:24;101225.98;;;6.73;25.44
63339;BME280;47485;51.378;-1.342;2023-05-03T04:53:51;101227.89;;;7.11;25.19
63339;BME280;47485;51.378;-1.342;2023-05-03T04:56:18;101228.92;;;7.70;25.40
63339;BME280;47485;51.378;-1.342;2023-05-03T04:58:45;101227.53;;;7.74;25.44
63339;BME280;47485;51.378;-1.342;2023-05-03T05:01:12;101226.09;;;8.77;25.04
63339;BME280;47485;51.378;-1.342;2023-05-03T05:03:39;101229.23;;;7.17;25.79
63339;BME280;47485;51.378;-1.342;2023-05-03T05:06:06;101228.03;;;5.77;26.09
63339;BME280;47485;51.378;-1.342;2023-05-03T05:08:33;101228.60;;;6.09;25.97
63339;BME280;47485;51.378;-1.342;2023-05-03T05:11:00;101227.45;;;7.11;25.99
63339;BME280;47485;51.378;-1.342;2023-05-03T05:13:27;101228.86;;;6.61;25.51
63339;BME280;47485;51.378;-1.342;2023-05-03T05:15:54;101229.46;;;6.94;25.67
63339;BME280;47485;51.378;-1.342;2023-05-03T05:18:21;101231.03;;;6.85;25.89
63339;BME280;47485;51.378;-1.342;2023-05-03T05:20:48;101231.40;;;6.85;26.17
63339;BME280;47485;51.378;-1.342;2023-05-03T05:23:15;101228.99;;;6.56;25.67
63339;BME280;47485;51.378;-1.342;2023-05-03T05:25:41;101227.86;;;8.07;25.41
63339;BME280;47485;51.378;-1.342;2023-05-03T05:28:09;101230.36;;;7.79;25.65
63339;BME280;47485;51.378;-1.342;2023-05-03T05:30:36;101236.57;;;5.38;26.69
63339;BME280;47485;51.378;-1.342;2023-05-03T05:33:03;101238.57;;;7.98;25.92
63339;BME280;47485;51.378;-1.342;2023-05-03T05:35:31;101239.67;;;8.10;25.44
63339;BME280;47485;51.378;-1.342;2023-05-03T05:37:58;101238.31;;;8.34;25.27
63339;BME280;47485;51.378;-1.342;2023-05-03T05:40:25;101241.02;;;6.81;26.39
63339;BME280;47485;51.378;-1.342;2023-05-03T05:42:52;101243.23;;;7.68;25.90
63339;BME280;47485;51.378;-1.342;2023-05-03T05:45:19;101246.00;;;6.99;26.13
63339;BME280;47485;51.378;-1.342;2023-05-03T05:47:45;101247.64;;;6.34;26.86
63339;BME280;47485;51.378;-1.342;2023-05-03T05:50:12;101253.00;;;6.87;26.39
63339;BME280;47485;51.378;-1.342;2023-05-03T05:52:39;101253.70;;;6.92;26.64
63339;BME280;47485;51.378;-1.342;2023-05-03T05:55:06;101253.28;;;6.70;26.64
63339;BME280;47485;51.378;-1.342;2023-05-03T05:57:32;101252.75;;;6.62;26.35
63339;BME280;47485;51.378;-1.342;2023-05-03T05:59:59;101257.58;;;6.14;26.93
63339;BME280;47485;51.378;-1.342;2023-05-03T06:02:26;101262.50;;;4.92;26.74
63339;BME280;47485;51.378;-1.342;2023-05-03T06:04:53;101266.31;;;4.78;27.37
63339;BME280;47485;51.378;-1.342;2023-05-03T06:07:19;101268.59;;;6.10;27.57
63339;BME280;47485;51.378;-1.342;2023-05-03T06:09:46;101270.83;;;6.06;26.94
63339;BME280;47485;51.378;-1.342;2023-05-03T06:12:13;101274.90;;;4.56;28.79
63339;BME280;47485;51.378;-1.342;2023-05-03T06:14:40;101283.13;;;1.65;31.19
63339;BME280;47485;51.378;-1.342;2023-05-03T06:17:06;101273.01;;;4.78;28.90
63339;BME280;47485;51.378;-1.342;2023-05-03T06:19:33;101273.02;;;4.57;29.26
63339;BME280;47485;51.378;-1.342;2023-05-03T06:22:01;101271.88;;;4.90;29.28
63339;BME280;47485;51.378;-1.342;2023-05-03T06:24:28;101269.48;;;3.43;29.23
63339;BME280;47485;51.378;-1.342;2023-05-03T06:26:55;101260.78;;;4.56;28.98
63339;BME280;47485;51.378;-1.342;2023-05-03T06:29:21;101260.31;;;5.74;28.49
63339;BME280;47485;51.378;-1.342;2023-05-03T06:31:48;101257.59;;;5.76;28.76
63339;BME280;47485;51.378;-1.342;2023-05-03T06:34:17;101257.47;;;3.99;29.75
63339;BME280;47485;51.378;-1.342;2023-05-03T06:36:43;101256.59;;;4.61;29.47
63339;BME280;47485;51.378;-1.342;2023-05-03T06:39:12;101258.99;;;5.18;29.18
63339;BME280;47485;51.378;-1.342;2023-05-03T06:41:39;101260.78;;;5.01;29.76
63339;BME280;47485;51.378;-1.342;2023-05-03T06:44:06;101260.14;;;2.38;29.78
63339;BME280;47485;51.378;-1.342;2023-05-03T06:46:33;101263.57;;;3.29;30.28
63339;BME280;47485;51.378;-1.342;2023-05-03T06:48:59;101259.91;;;5.11;29.91
63339;BME280;47485;51.378;-1.342;2023-05-03T06:51:26;101262.93;;;0.78;32.65
63339;BME280;47485;51.378;-1.342;2023-05-03T06:53:53;101260.39;;;5.29;28.88
63339;BME280;47485;51.378;-1.342;2023-05-03T06:56:21;101262.47;;;3.66;30.40
63339;BME280;47485;51.378;-1.342;2023-05-03T06:58:47;101260.74;;;4.70;30.13
63339;BME280;47485;51.378;-1.342;2023-05-03T07:01:15;101265.40;;;3.07;30.20
63339;BME280;47485;51.378;-1.342;2023-05-03T07:03:41;101263.50;;;4.34;30.61
63339;BME280;47485;51.378;-1.342;2023-05-03T07:06:09;101266.80;;;4.07;30.07
63339;BME280;47485;51.378;-1.342;2023-05-03T07:08:36;101266.22;;;3.73;29.01
63339;BME280;47485;51.378;-1.342;2023-05-03T07:11:03;101262.54;;;6.72;27.94
63339;BME280;47485;51.378;-1.342;2023-05-03T07:13:30;101265.06;;;5.96;28.26
63339;BME280;47485;51.378;-1.342;2023-05-03T07:15:57;101262.52;;;6.01;27.90
63339;BME280;47485;51.378;-1.342;2023-05-03T07:18:24;101260.34;;;6.25;28.15
63339;BME280;47485;51.378;-1.342;2023-05-03T07:20:51;101261.57;;;3.93;28.08
63339;BME280;47485;51.378;-1.342;2023-05-03T07:23:17;101269.05;;;3.60;29.22
63339;BME280;47485;51.378;-1.342;2023-05-03T07:25:45;101264.49;;;3.44;29.91
63339;BME280;47485;51.378;-1.342;2023-05-03T07:28:12;101265.83;;;2.61;31.07
63339;BME280;47485;51.378;-1.342;2023-05-03T07:30:39;101258.88;;;4.87;29.25
63339;BME280;47485;51.378;-1.342;2023-05-03T07:33:06;101261.63;;;3.95;30.09
63339;BME280;47485;51.378;-1.342;2023-05-03T07:35:32;101259.22;;;4.64;28.89
63339;BME280;47485;51.378;-1.342;2023-05-03T07:37:59;101254.42;;;4.75;29.60
63339;BME280;47485;51.378;-1.342;2023-05-03T07:40:26;101253.16;;;4.69;29.67
63339;BME280;47485;51.378;-1.342;2023-05-03T07:42:53;101249.34;;;6.99;27.87
63339;BME280;47485;51.378;-1.342;2023-05-03T07:45:19;101241.60;;;9.20;26.22
63339;BME280;47485;51.378;-1.342;2023-05-03T07:47:46;101244.11;;;6.49;28.68
63339;BME280;47485;51.378;-1.342;2023-05-03T07:50:13;101242.52;;;4.89;28.77
63339;BME280;47485;51.378;-1.342;2023-05-03T07:52:40;101240.28;;;4.26;28.87
63339;BME280;47485;51.378;-1.342;2023-05-03T07:55:07;101237.06;;;6.83;27.89
63339;BME280;47485;51.378;-1.342;2023-05-03T07:57:34;101235.71;;;9.41;26.15
63339;BME280;47485;51.378;-1.342;2023-05-03T08:00:01;101234.66;;;7.87;26.59
63339;BME280;47485;51.378;-1.342;2023-05-03T08:02:27;101229.91;;;8.62;25.67
63339;BME280;47485;51.378;-1.342;2023-05-03T08:04:54;101235.64;;;9.04;26.12
63339;BME280;47485;51.378;-1.342;2023-05-03T08:07:20;101235.43;;;6.09;27.98
63339;BME280;47485;51.378;-1.342;2023-05-03T08:09:47;101224.28;;;9.92;25.47
63339;BME280;47485;51.378;-1.342;2023-05-03T08:12:14;101229.45;;;7.15;26.72
63339;BME280;47485;51.378;-1.342;2023-05-03T08:14:41;101230.98;;;7.15;26.43
63339;BME280;47485;51.378;-1.342;2023-05-03T08:17:08;101235.28;;;7.71;27.27
63339;BME280;47485;51.378;-1.342;2023-05-03T08:19:35;101231.64;;;7.96;27.12
63339;BME280;47485;51.378;-1.342;2023-05-03T08:22:02;101231.22;;;6.82;26.99
63339;BME280;47485;51.378;-1.342;2023-05-03T08:24:29;101231.24;;;6.54;27.73
63339;BME280;47485;51.378;-1.342;2023-05-03T08:26:56;101225.80;;;7.10;27.12
63339;BME280;47485;51.378;-1.342;2023-05-03T08:29:23;101225.05;;;7.83;26.15
63339;BME280;47485;51.378;-1.342;2023-05-03T08:31:50;101227.40;;;6.58;26.87
63339;BME280;47485;51.378;-1.342;2023-05-03T08:34:17;101223.65;;;7.68;27.25
63339;BME280;47485;51.378;-1.342;2023-05-03T08:36:43;101223.58;;;6.61;27.79
63339;BME280;47485;51.378;-1.342;2023-05-03T08:39:11;101218.03;;;7.32;26.34
63339;BME280;47485;51.378;-1.342;2023-05-03T08:41:38;101212.69;;;10.43;25.55
63339;BME280;47485;51.378;-1.342;2023-05-03T08:44:07;101220.87;;;4.74;27.98
63339;BME280;47485;51.378;-1.342;2023-05-03T08:46:37;101209.01;;;9.90;25.19
63339;BME280;47485;51.378;-1.342;2023-05-03T08:49:04;101212.95;;;5.97;27.56
63339;BME280;47485;51.378;-1.342;2023-05-03T08:51:30;101217.96;;;5.76;27.87
63339;BME280;47485;51.378;-1.342;2023-05-03T08:53:59;101211.83;;;9.79;24.91
63339;BME280;47485;51.378;-1.342;2023-05-03T08:56:29;101213.66;;;7.58;25.29
63339;BME280;47485;51.378;-1.342;2023-05-03T08:58:58;101208.61;;;8.25;24.56
63339;BME280;47485;51.378;-1.342;2023-05-03T09:01:25;101204.59;;;9.04;24.21
63339;BME280;47485;51.378;-1.342;2023-05-03T09:03:52;101196.46;;;8.67;25.04
63339;BME280;47485;51.378;-1.342;2023-05-03T09:06:20;101199.63;;;9.35;24.81
63339;BME280;47485;51.378;-1.342;2023-05-03T09:08:47;101201.56;;;8.53;25.23
63339;BME280;47485;51.378;-1.342;2023-05-03T09:11:19;101195.96;;;9.06;25.01
63339;BME280;47485;51.378;-1.342;2023-05-03T09:13:47;101194.77;;;8.29;25.26
63339;BME280;47485;51.378;-1.342;2023-05-03T09:16:21;101192.43;;;8.18;25.75
63339;BME280;47485;51.378;-1.342;2023-05-03T09:18:56;101193.93;;;7.54;26.01
63339;BME280;47485;51.378;-1.342;2023-05-03T09:21:23;101198.39;;;5.74;26.84
63339;BME280;47485;51.378;-1.342;2023-05-03T09:23:50;101190.70;;;9.33;24.30
63339;BME280;47485;51.378;-1.342;2023-05-03T09:26:27;101187.34;;;9.47;23.64
63339;BME280;47485;51.378;-1.342;2023-05-03T09:28:54;101189.48;;;7.83;25.29
63339;BME280;47485;51.378;-1.342;2023-05-03T09:31:21;101191.24;;;6.80;25.97
63339;BME280;47485;51.378;-1.342;2023-05-03T09:33:48;101192.85;;;7.24;26.36
63339;BME280;47485;51.378;-1.342;2023-05-03T09:36:15;101195.53;;;5.65;26.69
63339;BME280;47485;51.378;-1.342;2023-05-03T09:38:41;101193.98;;;9.33;24.83
63339;BME280;47485;51.378;-1.342;2023-05-03T09:41:10;101189.98;;;12.65;22.93
63339;BME280;47485;51.378;-1.342;2023-05-03T09:43:47;101192.74;;;8.26;25.66
63339;BME280;47485;51.378;-1.342;2023-05-03T09:46:15;101186.02;;;11.37;23.75
63339;BME280;47485;51.378;-1.342;2023-05-03T09:48:42;101178.59;;;9.56;23.99
63339;BME280;47485;51.378;-1.342;2023-05-03T09:51:11;101183.44;;;9.07;25.60
63339;BME280;47485;51.378;-1.342;2023-05-03T09:53:40;101184.38;;;9.00;23.68
63339;BME280;47485;51.378;-1.342;2023-05-03T09:56:09;101181.27;;;11.86;22.88
63339;BME280;47485;51.378;-1.342;2023-05-03T09:58:37;101192.44;;;6.67;27.80
63339;BME280;47485;51.378;-1.342;2023-05-03T10:01:04;101182.29;;;9.48;25.87
63339;BME280;47485;51.378;-1.342;2023-05-03T10:03:36;101182.98;;;7.00;26.28
63339;BME280;47485;51.378;-1.342;2023-05-03T10:06:10;101179.66;;;9.38;25.45
63339;BME280;47485;51.378;-1.342;2023-05-03T10:08:45;101180.84;;;6.51;26.50
63339;BME280;47485;51.378;-1.342;2023-05-03T10:11:16;101178.55;;;8.76;25.31
63339;BME280;47485;51.378;-1.342;2023-05-03T10:13:44;101173.53;;;11.11;23.58
63339;BME280;47485;51.378;-1.342;2023-05-03T10:16:16;101176.72;;;12.10;23.65
63339;BME280;47485;51.378;-1.342;2023-05-03T10:18:52;101181.00;;;7.73;27.33
63339;BME280;47485;51.378;-1.342;2023-05-03T10:21:28;101176.24;;;9.30;23.62
63339;BME280;47485;51.378;-1.342;2023-05-03T10:24:15;101176.37;;;8.61;25.44
63339;BME280;47485;51.378;-1.342;2023-05-03T10:26:43;101171.14;;;10.97;22.82
63339;BME280;47485;51.378;-1.342;2023-05-03T10:29:44;101172.94;;;9.36;24.92
63339;BME280;47485;51.378;-1.342;2023-05-03T10:32:28;101159.75;;;9.35;23.91
63339;BME280;47485;51.378;-1.342;2023-05-03T10:34:56;101160.29;;;8.75;25.28
63339;BME280;47485;51.378;-1.342;2023-05-03T10:37:26;101156.10;;;9.62;24.39
63339;BME280;47485;51.378;-1.342;2023-05-03T10:39:53;101149.63;;;11.28;22.53
63339;BME280;47485;51.378;-1.342;2023-05-03T10:42:21;101146.72;;;10.90;23.14
63339;BME280;47485;51.378;-1.342;2023-05-03T10:44:51;101141.03;;;9.39;24.73
63339;BME280;47485;51.378;-1.342;2023-05-03T10:47:19;101144.66;;;5.58;27.59
63339;BME280;47485;51.378;-1.342;2023-05-03T10:49:53;101131.46;;;11.02;23.86
63339;BME280;47485;51.378;-1.342;2023-05-03T10:52:49;101130.82;;;9.35;24.99
63339;BME280;47485;51.378;-1.342;2023-05-03T10:55:18;101131.57;;;9.21;24.49
63339;BME280;47485;51.378;-1.342;2023-05-03T10:57:46;101126.94;;;9.92;24.95
63339;BME280;47485;51.378;-1.342;2023-05-03T11:00:16;101119.98;;;8.91;24.22
63339;BME280;47485;51.378;-1.342;2023-05-03T11:03:11;101124.95;;;6.82;26.83
63339;BME280;47485;51.378;-1.342;2023-05-03T11:05:39;101120.09;;;8.81;24.94
63339;BME280;47485;51.378;-1.342;2023-05-03T11:08:08;101114.79;;;13.01;22.35
63339;BME280;47485;51.378;-1.342;2023-05-03T11:10:34;101112.88;;;11.13;23.61
63339;BME280;47485;51.378;-1.342;2023-05-03T11:13:01;101120.21;;;5.96;27.06
63339;BME280;47485;51.378;-1.342;2023-05-03T11:15:28;101115.76;;;10.13;23.87
63339;BME280;47485;51.378;-1.342;2023-05-03T11:17:55;101104.19;;;11.86;22.20
63339;BME280;47485;51.378;-1.342;2023-05-03T11:20:22;101105.90;;;8.32;24.42
63339;BME280;47485;51.378;-1.342;2023-05-03T11:22:49;101105.63;;;11.18;23.60
63339;BME280;47485;51.378;-1.342;2023-05-03T11:25:16;101095.68;;;11.49;22.77
63339;BME280;47485;51.378;-1.342;2023-05-03T11:27:43;101091.73;;;10.49;23.32
63339;BME280;47485;51.378;-1.342;2023-05-03T11:30:12;101093.28;;;8.75;24.85
63339;BME280;47485;51.378;-1.342;2023-05-03T11:32:39;101091.96;;;8.07;27.52
63339;BME280;47485;51.378;-1.342;2023-05-03T11:35:07;101085.04;;;8.90;24.62
63339;BME280;47485;51.378;-1.342;2023-05-03T11:37:34;101080.84;;;10.72;23.07
63339;BME280;47485;51.378;-1.342;2023-05-03T11:40:00;101072.78;;;12.04;23.39
63339;BME280;47485;51.378;-1.342;2023-05-03T11:42:27;101074.49;;;9.71;23.92
63339;BME280;47485;51.378;-1.342;2023-05-03T11:44:54;101074.18;;;8.54;26.40
63339;BME280;47485;51.378;-1.342;2023-05-03T11:47:21;101073.35;;;9.26;24.24
63339;BME280;47485;51.378;-1.342;2023-05-03T11:49:52;101077.00;;;8.62;26.26
63339;BME280;47485;51.378;-1.342;2023-05-03T11:52:20;101066.39;;;12.39;23.36
63339;BME280;47485;51.378;-1.342;2023-05-03T11:54:47;101056.22;;;13.33;21.76
63339;BME280;47485;51.378;-1.342;2023-05-03T11:57:14;101057.08;;;11.26;23.05
63339;BME280;47485;51.378;-1.342;2023-05-03T11:59:42;101051.17;;;11.03;23.77
63339;BME280;47485;51.378;-1.342;2023-05-03T12:02:12;101043.63;;;12.11;22.58
63339;BME280;47485;51.378;-1.342;2023-05-03T12:04:40;101037.47;;;13.59;21.49
63339;BME280;47485;51.378;-1.342;2023-05-03T12:07:08;101034.52;;;13.61;22.05
63339;BME280;47485;51.378;-1.342;2023-05-03T12:09:35;101033.66;;;8.28;25.46
63339;BME280;47485;51.378;-1.342;2023-05-03T12:12:01;101036.42;;;10.29;25.20
63339;BME280;47485;51.378;-1.342;2023-05-03T12:14:55;101030.62;;;11.42;22.58
63339;BME280;47485;51.378;-1.342;2023-05-03T12:17:38;101028.87;;;10.12;24.59
63339;BME280;47485;51.378;-1.342;2023-05-03T12:20:14;101030.06;;;8.36;26.10
63339;BME280;47485;51.378;-1.342;2023-05-03T12:22:41;101021.97;;;9.04;25.22
63339;BME280;47485;51.378;-1.342;2023-05-03T12:25:08;101016.24;;;9.58;25.16
63339;BME280;47485;51.378;-1.342;2023-05-03T12:27:35;101003.68;;;11.46;23.72
63339;BME280;47485;51.378;-1.342;2023-05-03T12:30:02;101013.67;;;10.29;24.43
63339;BME280;47485;51.378;-1.342;2023-05-03T12:32:28;101008.81;;;8.66;24.98
63339;BME280;47485;51.378;-1.342;2023-05-03T12:34:55;101007.36;;;9.06;25.26
63339;BME280;47485;51.378;-1.342;2023-05-03T12:37:22;101005.40;;;9.95;23.61
63339;BME280;47485;51.378;-1.342;2023-05-03T12:39:49;100995.47;;;13.43;20.80
63339;BME280;47485;51.378;-1.342;2023-05-03T12:42:16;101005.80;;;7.98;26.19
63339;BME280;47485;51.378;-1.342;2023-05-03T12:44:42;100988.55;;;11.21;23.16
63339;BME280;47485;51.378;-1.342;2023-05-03T12:47:10;100991.69;;;9.41;25.05
63339;BME280;47485;51.378;-1.342;2023-05-03T12:49:37;100989.43;;;10.30;23.31
63339;BME280;47485;51.378;-1.342;2023-05-03T12:52:04;100987.63;;;9.92;23.76